Turnov, Czech Republic
Current Conditions -  °F | °C
As of 2:00 AM on Monday 26 Jan 2015 (Local Time) from LKKB Reporting Station
Broken Clouds Broken Clouds  
Wind Chill: 32°   Ceiling: 4000
Heat Index: 32°   Visibility: 6mi
Dew Point: 28°   Wind: 1mph
Humidity: 87%   Direction: 290°WNW
Pressure: 30.27"   Gusts: NA
Location:  50.6°N, 15.14°E
Report Text: LKKB 260000Z 29001KT 9999 BKN040 M00/M02 Q1025
Loading
Personal Weather Stations






























Interactive Weather Map New forecast layout! Learn more

10-Day Weather Forecast

Advertisements
Track Severe Weather on mobile